Terminal Aerodrome Forecast
Issued by NWS State College, PA

Home | Current Version | Previous Version | Text Only | Print | Product List | Glossary On
Versions: 1 2 3 4 5 6 7 8 9 10 11 12 13 14 15 16 17 18 19 20 21 22 23 24 25 26
000
FTUS41 KCTP 010538
TAFMDT
TAF
KMDT 010538Z 0106/0206 15010KT P6SM FEW018 BKN030 OVC040
     FM011200 13009KT 1SM -RA BR OVC007
     FM011800 13004KT 4SM -RA BR OVC007=

USA.gov is the U.S. government's official web portal to all federal, state and local government web resources and services.